Terminal Aerodrome Forecast
Issued by NWS Upton, NY

Home | Current Version | Previous Version | Text Only | Print | Product List | Glossary On
Versions: 1 2 3 4 5 6 7 8 9 10 11 12 13 14 15 16 17 18 19 20 21 22 23 24 25 26 27 28
000
FTUS41 KOKX 271400 AAB
TAFEWR
TAF AMD
KEWR 271431Z 2715/2818 21008KT P6SM FEW250
     FM271900 21010KT P6SM SCT040
     FM280200 28005KT P6SM SCT040 BKN100 PROB30 2802/2805 -SHRA
     FM280500 32008KT P6SM SCT040 SCT100
     FM281200 34012KT P6SM FEW040=

USA.gov is the U.S. government's official web portal to all federal, state and local government web resources and services.